Overall — Coyote Run Mini

Sunday 22 August 2021 · 59 finishers across every class · 4 laps for the winner

Complete overall finishing order for Coyote Run Mini.
Pos No. Rider Class Laps Time Behind Int Pace
1 #99A Feather, Peyton SM 14-15 4 1:03:42 0:00 15:55
2 #23A Thomas, Jacob SM 14-15 4 1:06:12 +2:30 2:30 16:33
3 #20A White, Seth SM 14-15 4 1:07:18 +3:36 1:06 16:49
4 #92A Lambert, Ashton SM 14-15 4 1:08:15 +4:33 0:57 17:03
5 #22C Roach, Anthony MINI 12-13 4 1:17:12 +13:30 8:57 19:18
6 #26B Wilkins, Curt SM 12-13 4 1:18:20 +14:38 1:08 19:35
7 #51B smith, jaytin SM 12-13 4 1:20:15 +16:33 1:55 20:03
8 #94C McCullough, Ryland MINI 12-13 4 1:20:39 +16:57 0:24 20:09
9 #22A Cobbs, Malcolm SM 14-15 4 1:21:26 +17:44 0:47 20:21
10 #19A Weber, Kyle SM 14-15 4 1:21:35 +17:53 0:09 20:23
11 #5C Weston, Bodie MINI 12-13 4 1:21:54 +18:12 0:19 20:28
12 #79A Vair, Brookelyn SM 14-15 4 1:24:42 +21:00 2:48 21:10
13 #14B Crislip, Parker SM 12-13 3 1:04:00 1 lap 0:00 21:20
14 #98B Layman, Ryan SM 12-13 3 1:09:13 1 lap 5:13 23:04
15 #11E Finch, Sarah SM WOMEN 3 1:09:31 1 lap 0:18 23:10
16 #77E Adamson, Ella SM WOMEN 3 1:12:25 1 lap 2:54 24:08
17 #16C Clinedinst, Laird MINI 12-13 3 1:13:26 1 lap 1:01 24:28
18 #44D Gearhart, Cadence MINI 9-11 3 1:14:28 1 lap 1:02 24:49
19 #67C Bonanno, Adin MINI 12-13 3 1:15:25 1 lap 0:57 25:08
20 #18D Edmonson, Tucker MINI 9-11 3 1:15:31 1 lap 0:06 25:10
21 #43D Smith, Ryan MINI 9-11 3 1:15:31 1 lap 0:00 25:10
22 #74D Puckett, Michael MINI 9-11 3 1:15:35 1 lap 0:04 25:11
23 #36E Cox, Laura SM WOMEN 3 1:15:36 1 lap 0:01 25:12
24 #12C Hatchett, Charles MINI 12-13 3 1:16:35 1 lap 0:59 25:31
25 #38K Bakken, Dash MINI 9-11K 3 1:19:43 1 lap 3:08 26:34
26 #38D Mazzola, Brennan MINI 9-11 3 1:20:00 1 lap 0:17 26:40
27 #42K Lacy, Jack MINI 9-11K 3 1:20:40 1 lap 0:40 26:53
28 #5D Oleary Ashton MINI 9-11 3 1:24:00 1 lap 3:20 28:00
29 #52D Foutz, Kellen MINI 9-11 3 1:24:03 1 lap 0:03 28:01
30 #19E McKeithan, Alison SM WOMEN 3 1:24:44 1 lap 0:41 28:14
31 #24B Chrimes, Chase SM 12-13 3 1:25:15 1 lap 0:31 28:25
32 #14K Collins, Jaxon MINI 9-11K 3 1:27:16 1 lap 2:01 29:05
33 #10C HERTEL, TYLER MINI 12-13 3 1:27:50 1 lap 0:34 29:16
34 #31D Nealy Jr, Ivan MINI 9-11 3 1:29:03 1 lap 1:13 29:41
35 #25D Hertzler, Noah MINI 9-11 3 1:31:32 1 lap 2:29 30:30
36 #5A Metheny, Dylan SM 14-15 2 42:15 2 laps 0:00 21:07
37 #75K Pugh, Jackson MINI 9-11K 2 58:45 2 laps 16:30 29:22
38 #24KZ Oleary, Nolan MINI 9-11K 2 1:03:41 2 laps 4:56 31:50
39 #18E Hardman, Savannah SM WOMEN 2 1:05:17 2 laps 1:36 32:38
40 #12A Rafferty, Braedon SM 14-15 2 1:06:10 2 laps 0:53 33:05
41 #27E Leebeck, Scarlett SM WOMEN 2 1:06:37 2 laps 0:27 33:18
42 #29K Poff, Peyton MINI 9-11K 2 1:11:07 2 laps 4:30 35:33
43 #46G Caccamo, Sheri TRL WOMEN 2 1:13:21 2 laps 2:14 36:40
44 #8E Pancake, Delilah SM WOMEN 2 1:14:23 2 laps 1:02 37:11
45 #88G McKeithan, Kathleen TRL WOMEN 2 1:14:57 2 laps 0:34 37:28
46 #28G Bryan, Reagan TRL WOMEN 2 1:15:02 2 laps 0:05 37:31
47 #56K Buchanan, Tucker MINI 9-11K 2 1:15:02 2 laps 0:00 37:31
48 #16B Leebeck, Christopher SM 12-13 2 1:17:00 2 laps 1:58 38:30
49 #35DZ Baker, Cohen MINI 9-11 2 1:19:36 2 laps 2:36 39:48
50 #51K Rice, Dane MINI 9-11K 2 1:25:29 2 laps 5:53 42:44
51 #20B Arden, Dalton SM 12-13 2 1:26:30 2 laps 1:01 43:15
52 #56G Goff, Kyndall TRL WOMEN 2 1:30:55 2 laps 4:25 45:27
53 #32D Johnson, Brady MINI 9-11 2 1:35:11 2 laps 4:16 47:35
54 #99D Cook, Cale MINI 9-11 2 1:35:14 2 laps 0:03 47:37
55 #12B Shannon, Parker SM 12-13 2 1:41:23 2 laps 6:09 50:41
56 #31C Hammock, Noah MINI 12-13 1 51:58 3 laps 0:00 51:58
57 #84C Brantley, David MINI 12-13 1 56:15 3 laps 4:17 56:15
58 #18K Kuebler, Caden MINI 9-11K 1 57:30 3 laps 1:15 57:30
59 #27K Kobia, Shain MINI 9-11K 1 1:19:54 3 laps 22:24 1:19:54

Ranked the way the series ranks: most laps first, then least time. Behind is the deficit to the winner and is only shown where the lap count matches, because elapsed time says nothing across different lap counts — a rider a lap down shows the laps instead. Int is the gap to the rider immediately ahead.